sensor_id;sensor_type;location;lat;lon;timestamp;P1;durP1;ratioP1;P2;durP2;ratioP2
9940;SDS011;5009;50.656;7.188;2023-08-30T04:00:27;10.67;;;9.57;;
9940;SDS011;5009;50.656;7.188;2023-08-30T04:02:52;12.00;;;10.20;;
9940;SDS011;5009;50.656;7.188;2023-08-30T04:05:18;10.33;;;9.43;;
9940;SDS011;5009;50.656;7.188;2023-08-30T04:07:43;10.43;;;9.43;;
9940;SDS011;5009;50.656;7.188;2023-08-30T04:10:09;9.60;;;8.70;;
9940;SDS011;5009;50.656;7.188;2023-08-30T04:12:35;9.67;;;8.77;;
9940;SDS011;5009;50.656;7.188;2023-08-30T04:15:01;9.30;;;8.60;;
9940;SDS011;5009;50.656;7.188;2023-08-30T04:17:27;9.77;;;8.53;;
9940;SDS011;5009;50.656;7.188;2023-08-30T04:19:53;9.97;;;8.97;;
9940;SDS011;5009;50.656;7.188;2023-08-30T04:22:18;9.03;;;8.33;;
9940;SDS011;5009;50.656;7.188;2023-08-30T04:24:44;10.30;;;9.43;;
9940;SDS011;5009;50.656;7.188;2023-08-30T04:27:10;9.50;;;8.63;;
9940;SDS011;5009;50.656;7.188;2023-08-30T04:29:36;9.50;;;8.70;;
9940;SDS011;5009;50.656;7.188;2023-08-30T04:32:02;9.97;;;9.07;;
9940;SDS011;5009;50.656;7.188;2023-08-30T04:34:27;11.37;;;8.33;;
9940;SDS011;5009;50.656;7.188;2023-08-30T04:36:54;9.20;;;8.50;;
9940;SDS011;5009;50.656;7.188;2023-08-30T04:39:19;9.37;;;8.47;;
9940;SDS011;5009;50.656;7.188;2023-08-30T04:41:45;9.70;;;8.83;;
9940;SDS011;5009;50.656;7.188;2023-08-30T04:44:10;9.23;;;8.43;;
9940;SDS011;5009;50.656;7.188;2023-08-30T04:46:36;9.63;;;8.73;;
9940;SDS011;5009;50.656;7.188;2023-08-30T04:49:02;9.07;;;8.37;;
9940;SDS011;5009;50.656;7.188;2023-08-30T04:51:27;9.40;;;8.50;;
9940;SDS011;5009;50.656;7.188;2023-08-30T04:53:53;8.87;;;8.00;;
9940;SDS011;5009;50.656;7.188;2023-08-30T04:56:18;9.00;;;8.20;;
9940;SDS011;5009;50.656;7.188;2023-08-30T04:58:44;8.90;;;8.20;;
9940;SDS011;5009;50.656;7.188;2023-08-30T05:01:09;9.40;;;8.60;;
9940;SDS011;5009;50.656;7.188;2023-08-30T05:03:38;9.53;;;8.73;;
9940;SDS011;5009;50.656;7.188;2023-08-30T05:06:04;10.27;;;9.27;;
9940;SDS011;5009;50.656;7.188;2023-08-30T05:08:29;9.87;;;8.93;;
9940;SDS011;5009;50.656;7.188;2023-08-30T05:11:01;10.27;;;9.30;;
9940;SDS011;5009;50.656;7.188;2023-08-30T05:13:28;10.37;;;9.40;;
9940;SDS011;5009;50.656;7.188;2023-08-30T05:15:53;9.73;;;8.83;;
9940;SDS011;5009;50.656;7.188;2023-08-30T05:18:19;10.03;;;9.23;;
9940;SDS011;5009;50.656;7.188;2023-08-30T05:20:44;10.27;;;9.33;;
9940;SDS011;5009;50.656;7.188;2023-08-30T05:23:10;8.77;;;8.07;;
9940;SDS011;5009;50.656;7.188;2023-08-30T05:25:35;9.70;;;8.80;;
9940;SDS011;5009;50.656;7.188;2023-08-30T05:28:01;9.70;;;8.80;;
9940;SDS011;5009;50.656;7.188;2023-08-30T05:30:26;10.03;;;9.03;;
9940;SDS011;5009;50.656;7.188;2023-08-30T05:32:52;9.60;;;8.80;;
9940;SDS011;5009;50.656;7.188;2023-08-30T05:35:18;10.30;;;9.50;;
9940;SDS011;5009;50.656;7.188;2023-08-30T05:37:43;10.70;;;9.80;;
9940;SDS011;5009;50.656;7.188;2023-08-30T05:40:09;10.73;;;9.70;;
9940;SDS011;5009;50.656;7.188;2023-08-30T05:42:35;11.10;;;10.03;;
9940;SDS011;5009;50.656;7.188;2023-08-30T05:45:01;10.80;;;9.70;;
9940;SDS011;5009;50.656;7.188;2023-08-30T05:47:26;11.93;;;10.03;;
9940;SDS011;5009;50.656;7.188;2023-08-30T05:49:52;11.37;;;10.17;;
9940;SDS011;5009;50.656;7.188;2023-08-30T05:52:17;10.73;;;9.73;;
9940;SDS011;5009;50.656;7.188;2023-08-30T05:54:43;11.77;;;8.80;;
9940;SDS011;5009;50.656;7.188;2023-08-30T05:57:09;11.00;;;10.00;;
9940;SDS011;5009;50.656;7.188;2023-08-30T05:59:35;10.83;;;9.83;;
9940;SDS011;5009;50.656;7.188;2023-08-30T06:02:01;10.37;;;9.43;;
9940;SDS011;5009;50.656;7.188;2023-08-30T06:04:26;10.03;;;9.23;;
9940;SDS011;5009;50.656;7.188;2023-08-30T06:06:52;11.03;;;9.90;;
9940;SDS011;5009;50.656;7.188;2023-08-30T06:09:18;10.70;;;9.82;;
9940;SDS011;5009;50.656;7.188;2023-08-30T06:11:43;11.63;;;10.52;;
9940;SDS011;5009;50.656;7.188;2023-08-30T06:14:09;11.20;;;10.20;;
9940;SDS011;5009;50.656;7.188;2023-08-30T06:16:34;12.13;;;11.02;;
9940;SDS011;5009;50.656;7.188;2023-08-30T06:19:00;13.27;;;11.77;;
9940;SDS011;5009;50.656;7.188;2023-08-30T06:21:26;12.43;;;11.25;;
9940;SDS011;5009;50.656;7.188;2023-08-30T06:23:52;12.75;;;11.60;;
9940;SDS011;5009;50.656;7.188;2023-08-30T06:26:17;12.85;;;11.60;;
9940;SDS011;5009;50.656;7.188;2023-08-30T06:28:43;12.02;;;10.82;;
9940;SDS011;5009;50.656;7.188;2023-08-30T06:31:09;12.60;;;11.50;;
9940;SDS011;5009;50.656;7.188;2023-08-30T06:33:35;11.63;;;10.63;;
9940;SDS011;5009;50.656;7.188;2023-08-30T06:36:01;12.68;;;11.43;;
9940;SDS011;5009;50.656;7.188;2023-08-30T06:38:27;12.35;;;11.07;;
9940;SDS011;5009;50.656;7.188;2023-08-30T06:40:53;12.52;;;11.40;;
9940;SDS011;5009;50.656;7.188;2023-08-30T06:43:18;11.45;;;10.45;;
9940;SDS011;5009;50.656;7.188;2023-08-30T06:45:44;12.18;;;11.07;;
9940;SDS011;5009;50.656;7.188;2023-08-30T06:48:11;11.82;;;10.63;;
9940;SDS011;5009;50.656;7.188;2023-08-30T06:50:37;10.27;;;9.38;;
9940;SDS011;5009;50.656;7.188;2023-08-30T06:53:02;10.50;;;9.43;;
9940;SDS011;5009;50.656;7.188;2023-08-30T06:55:28;10.80;;;9.80;;
9940;SDS011;5009;50.656;7.188;2023-08-30T06:57:54;10.60;;;9.57;;
9940;SDS011;5009;50.656;7.188;2023-08-30T07:00:20;10.57;;;9.63;;
9940;SDS011;5009;50.656;7.188;2023-08-30T07:02:46;10.15;;;9.25;;
9940;SDS011;5009;50.656;7.188;2023-08-30T07:05:12;8.57;;;7.78;;
9940;SDS011;5009;50.656;7.188;2023-08-30T07:07:37;8.88;;;8.18;;
9940;SDS011;5009;50.656;7.188;2023-08-30T07:10:03;9.00;;;8.10;;
9940;SDS011;5009;50.656;7.188;2023-08-30T07:12:29;8.43;;;7.63;;
9940;SDS011;5009;50.656;7.188;2023-08-30T07:14:55;8.23;;;7.47;;
9940;SDS011;5009;50.656;7.188;2023-08-30T07:17:20;8.63;;;7.88;;
9940;SDS011;5009;50.656;7.188;2023-08-30T07:19:46;8.73;;;7.82;;
9940;SDS011;5009;50.656;7.188;2023-08-30T07:22:12;7.75;;;7.05;;
9940;SDS011;5009;50.656;7.188;2023-08-30T07:24:37;7.47;;;6.80;;
9940;SDS011;5009;50.656;7.188;2023-08-30T07:27:03;7.22;;;6.63;;
9940;SDS011;5009;50.656;7.188;2023-08-30T07:29:29;7.68;;;7.05;;
9940;SDS011;5009;50.656;7.188;2023-08-30T07:31:54;7.35;;;6.68;;
9940;SDS011;5009;50.656;7.188;2023-08-30T07:34:20;7.30;;;6.72;;
9940;SDS011;5009;50.656;7.188;2023-08-30T07:36:46;7.03;;;6.40;;
9940;SDS011;5009;50.656;7.188;2023-08-30T07:39:11;8.20;;;7.40;;
9940;SDS011;5009;50.656;7.188;2023-08-30T07:41:37;6.95;;;6.35;;
9940;SDS011;5009;50.656;7.188;2023-08-30T07:44:03;6.80;;;6.20;;
9940;SDS011;5009;50.656;7.188;2023-08-30T07:46:29;7.50;;;6.53;;
9940;SDS011;5009;50.656;7.188;2023-08-30T07:48:54;6.90;;;6.13;;
9940;SDS011;5009;50.656;7.188;2023-08-30T07:51:20;6.50;;;5.90;;
9940;SDS011;5009;50.656;7.188;2023-08-30T07:53:46;8.00;;;7.22;;
9940;SDS011;5009;50.656;7.188;2023-08-30T07:56:12;6.63;;;6.03;;
9940;SDS011;5009;50.656;7.188;2023-08-30T07:58:38;7.90;;;6.15;;
9940;SDS011;5009;50.656;7.188;2023-08-30T08:01:05;7.05;;;5.57;;
9940;SDS011;5009;50.656;7.188;2023-08-30T08:03:31;6.97;;;6.30;;
9940;SDS011;5009;50.656;7.188;2023-08-30T08:05:57;8.48;;;6.15;;
9940;SDS011;5009;50.656;7.188;2023-08-30T08:08:25;6.53;;;5.53;;
9940;SDS011;5009;50.656;7.188;2023-08-30T08:10:50;9.60;;;5.88;;
9940;SDS011;5009;50.656;7.188;2023-08-30T08:13:16;5.93;;;5.15;;
9940;SDS011;5009;50.656;7.188;2023-08-30T08:15:41;5.95;;;5.35;;
9940;SDS011;5009;50.656;7.188;2023-08-30T08:18:08;5.40;;;4.88;;
9940;SDS011;5009;50.656;7.188;2023-08-30T08:20:34;6.72;;;5.32;;
9940;SDS011;5009;50.656;7.188;2023-08-30T08:23:01;7.15;;;5.03;;
9940;SDS011;5009;50.656;7.188;2023-08-30T08:25:27;6.72;;;4.90;;
9940;SDS011;5009;50.656;7.188;2023-08-30T08:27:53;7.05;;;4.30;;
9940;SDS011;5009;50.656;7.188;2023-08-30T08:30:18;4.97;;;4.55;;
9940;SDS011;5009;50.656;7.188;2023-08-30T08:32:45;5.00;;;4.50;;
9940;SDS011;5009;50.656;7.188;2023-08-30T08:35:12;5.35;;;4.55;;
9940;SDS011;5009;50.656;7.188;2023-08-30T08:37:38;7.93;;;4.13;;
9940;SDS011;5009;50.656;7.188;2023-08-30T08:40:04;4.95;;;4.47;;
9940;SDS011;5009;50.656;7.188;2023-08-30T08:42:33;5.20;;;4.80;;
9940;SDS011;5009;50.656;7.188;2023-08-30T08:45:00;4.50;;;3.88;;
9940;SDS011;5009;50.656;7.188;2023-08-30T08:47:27;4.60;;;4.10;;
9940;SDS011;5009;50.656;7.188;2023-08-30T08:49:55;5.68;;;4.40;;
9940;SDS011;5009;50.656;7.188;2023-08-30T08:52:21;5.13;;;4.07;;
9940;SDS011;5009;50.656;7.188;2023-08-30T08:54:47;4.22;;;3.90;;
9940;SDS011;5009;50.656;7.188;2023-08-30T08:57:13;3.88;;;3.58;;
9940;SDS011;5009;50.656;7.188;2023-08-30T08:59:39;4.63;;;3.78;;
9940;SDS011;5009;50.656;7.188;2023-08-30T09:02:04;4.15;;;3.50;;
9940;SDS011;5009;50.656;7.188;2023-08-30T09:04:31;3.50;;;3.20;;
9940;SDS011;5009;50.656;7.188;2023-08-30T09:07:00;3.97;;;3.60;;
9940;SDS011;5009;50.656;7.188;2023-08-30T09:09:26;6.20;;;4.10;;
9940;SDS011;5009;50.656;7.188;2023-08-30T09:11:52;4.70;;;4.00;;
9940;SDS011;5009;50.656;7.188;2023-08-30T09:14:18;5.90;;;4.18;;
9940;SDS011;5009;50.656;7.188;2023-08-30T09:19:22;7.40;;;3.70;;
9940;SDS011;5009;50.656;7.188;2023-08-30T09:21:54;5.68;;;3.28;;
9940;SDS011;5009;50.656;7.188;2023-08-30T09:24:21;4.72;;;3.15;;
9940;SDS011;5009;50.656;7.188;2023-08-30T09:26:50;6.90;;;3.30;;
9940;SDS011;5009;50.656;7.188;2023-08-30T09:29:17;20.05;;;4.75;;
9940;SDS011;5009;50.656;7.188;2023-08-30T09:31:44;7.07;;;3.70;;
9940;SDS011;5009;50.656;7.188;2023-08-30T09:34:10;4.95;;;4.10;;
9940;SDS011;5009;50.656;7.188;2023-08-30T09:36:37;5.13;;;3.80;;
9940;SDS011;5009;50.656;7.188;2023-08-30T09:39:09;4.20;;;3.78;;
9940;SDS011;5009;50.656;7.188;2023-08-30T09:41:46;5.40;;;3.38;;
9940;SDS011;5009;50.656;7.188;2023-08-30T09:44:16;3.80;;;3.50;;
9940;SDS011;5009;50.656;7.188;2023-08-30T09:46:50;5.15;;;3.58;;
9940;SDS011;5009;50.656;7.188;2023-08-30T09:49:20;3.53;;;3.30;;
9940;SDS011;5009;50.656;7.188;2023-08-30T09:51:46;4.28;;;3.28;;
9940;SDS011;5009;50.656;7.188;2023-08-30T09:54:23;3.65;;;3.25;;
9940;SDS011;5009;50.656;7.188;2023-08-30T09:56:49;4.07;;;3.63;;
9940;SDS011;5009;50.656;7.188;2023-08-30T09:59:18;3.83;;;3.20;;
9940;SDS011;5009;50.656;7.188;2023-08-30T10:01:45;3.92;;;3.60;;
9940;SDS011;5009;50.656;7.188;2023-08-30T10:04:13;3.88;;;3.47;;
9940;SDS011;5009;50.656;7.188;2023-08-30T10:06:39;3.90;;;3.22;;
9940;SDS011;5009;50.656;7.188;2023-08-30T10:09:06;4.22;;;3.35;;
9940;SDS011;5009;50.656;7.188;2023-08-30T10:11:33;5.40;;;3.80;;
9940;SDS011;5009;50.656;7.188;2023-08-30T10:14:00;6.68;;;3.60;;
9940;SDS011;5009;50.656;7.188;2023-08-30T10:16:43;3.63;;;3.33;;
9940;SDS011;5009;50.656;7.188;2023-08-30T10:21:48;4.32;;;3.92;;
9940;SDS011;5009;50.656;7.188;2023-08-30T10:24:17;3.65;;;3.35;;
9940;SDS011;5009;50.656;7.188;2023-08-30T10:26:45;3.92;;;3.53;;
9940;SDS011;5009;50.656;7.188;2023-08-30T10:29:12;3.65;;;3.35;;
9940;SDS011;5009;50.656;7.188;2023-08-30T10:31:39;4.70;;;3.58;;
9940;SDS011;5009;50.656;7.188;2023-08-30T10:34:13;5.32;;;4.00;;
9940;SDS011;5009;50.656;7.188;2023-08-30T10:36:44;4.20;;;3.85;;
9940;SDS011;5009;50.656;7.188;2023-08-30T10:39:13;4.07;;;3.70;;
9940;SDS011;5009;50.656;7.188;2023-08-30T10:41:55;4.15;;;3.72;;
9940;SDS011;5009;50.656;7.188;2023-08-30T10:44:21;4.38;;;3.33;;
9940;SDS011;5009;50.656;7.188;2023-08-30T10:46:51;4.75;;;3.70;;
9940;SDS011;5009;50.656;7.188;2023-08-30T10:49:18;4.30;;;3.90;;
9940;SDS011;5009;50.656;7.188;2023-08-30T10:51:44;7.07;;;4.30;;
9940;SDS011;5009;50.656;7.188;2023-08-30T10:54:11;7.13;;;4.00;;
9940;SDS011;5009;50.656;7.188;2023-08-30T10:56:56;4.25;;;3.85;;
9940;SDS011;5009;50.656;7.188;2023-08-30T10:59:23;4.30;;;3.90;;
9940;SDS011;5009;50.656;7.188;2023-08-30T11:01:50;5.97;;;4.20;;
9940;SDS011;5009;50.656;7.188;2023-08-30T11:04:17;6.10;;;4.38;;
9940;SDS011;5009;50.656;7.188;2023-08-30T11:06:43;4.82;;;4.32;;
9940;SDS011;5009;50.656;7.188;2023-08-30T11:09:16;4.05;;;3.75;;
9940;SDS011;5009;50.656;7.188;2023-08-30T11:11:43;4.50;;;3.85;;
9940;SDS011;5009;50.656;7.188;2023-08-30T11:14:12;3.92;;;3.63;;
9940;SDS011;5009;50.656;7.188;2023-08-30T11:16:39;4.22;;;3.83;;
9940;SDS011;5009;50.656;7.188;2023-08-30T11:19:05;5.65;;;4.00;;
9940;SDS011;5009;50.656;7.188;2023-08-30T11:21:32;4.65;;;3.83;;
9940;SDS011;5009;50.656;7.188;2023-08-30T11:24:08;5.35;;;4.63;;
9940;SDS011;5009;50.656;7.188;2023-08-30T11:26:34;4.20;;;3.80;;
9940;SDS011;5009;50.656;7.188;2023-08-30T11:29:09;7.05;;;3.80;;
9940;SDS011;5009;50.656;7.188;2023-08-30T11:31:35;3.75;;;3.45;;
9940;SDS011;5009;50.656;7.188;2023-08-30T11:34:01;4.40;;;4.00;;
9940;SDS011;5009;50.656;7.188;2023-08-30T11:36:31;4.00;;;3.63;;
9940;SDS011;5009;50.656;7.188;2023-08-30T11:38:59;4.05;;;3.60;;
9940;SDS011;5009;50.656;7.188;2023-08-30T11:41:25;3.97;;;3.58;;
9940;SDS011;5009;50.656;7.188;2023-08-30T11:43:52;4.20;;;3.47;;
9940;SDS011;5009;50.656;7.188;2023-08-30T11:46:18;3.80;;;3.50;;
9940;SDS011;5009;50.656;7.188;2023-08-30T11:48:44;3.90;;;3.38;;
9940;SDS011;5009;50.656;7.188;2023-08-30T11:51:11;4.88;;;3.13;;
9940;SDS011;5009;50.656;7.188;2023-08-30T11:53:37;4.60;;;3.50;;
9940;SDS011;5009;50.656;7.188;2023-08-30T11:56:04;3.83;;;3.42;;
9940;SDS011;5009;50.656;7.188;2023-08-30T11:58:36;3.83;;;3.53;;
9940;SDS011;5009;50.656;7.188;2023-08-30T12:01:03;3.72;;;3.15;;
9940;SDS011;5009;50.656;7.188;2023-08-30T12:03:30;5.72;;;3.63;;
9940;SDS011;5009;50.656;7.188;2023-08-30T12:05:57;3.50;;;2.97;;
9940;SDS011;5009;50.656;7.188;2023-08-30T12:08:24;4.25;;;3.25;;
9940;SDS011;5009;50.656;7.188;2023-08-30T12:10:53;3.40;;;3.10;;
9940;SDS011;5009;50.656;7.188;2023-08-30T12:13:21;4.75;;;3.20;;
9940;SDS011;5009;50.656;7.188;2023-08-30T12:15:50;3.53;;;3.22;;
9940;SDS011;5009;50.656;7.188;2023-08-30T12:20:57;4.13;;;2.95;;
9940;SDS011;5009;50.656;7.188;2023-08-30T12:23:28;3.95;;;3.10;;
9940;SDS011;5009;50.656;7.188;2023-08-30T12:26:05;3.25;;;2.95;;
9940;SDS011;5009;50.656;7.188;2023-08-30T12:28:33;3.65;;;3.22;;
9940;SDS011;5009;50.656;7.188;2023-08-30T12:31:03;5.72;;;3.25;;
9940;SDS011;5009;50.656;7.188;2023-08-30T12:33:29;9.18;;;3.40;;
9940;SDS011;5009;50.656;7.188;2023-08-30T12:35:55;4.03;;;3.63;;
9940;SDS011;5009;50.656;7.188;2023-08-30T12:38:21;4.80;;;3.42;;
9940;SDS011;5009;50.656;7.188;2023-08-30T12:40:48;3.40;;;3.10;;
9940;SDS011;5009;50.656;7.188;2023-08-30T12:43:16;4.43;;;3.55;;
9940;SDS011;5009;50.656;7.188;2023-08-30T12:45:42;5.57;;;3.65;;
9940;SDS011;5009;50.656;7.188;2023-08-30T12:48:09;4.50;;;3.35;;
9940;SDS011;5009;50.656;7.188;2023-08-30T12:50:40;4.15;;;3.63;;
9940;SDS011;5009;50.656;7.188;2023-08-30T12:53:07;4.75;;;4.00;;
9940;SDS011;5009;50.656;7.188;2023-08-30T12:55:33;3.90;;;3.55;;
9940;SDS011;5009;50.656;7.188;2023-08-30T12:58:00;3.95;;;3.55;;
9940;SDS011;5009;50.656;7.188;2023-08-30T13:00:26;5.25;;;3.83;;
9940;SDS011;5009;50.656;7.188;2023-08-30T13:02:52;4.75;;;4.32;;
9940;SDS011;5009;50.656;7.188;2023-08-30T13:05:17;4.45;;;4.13;;
9940;SDS011;5009;50.656;7.188;2023-08-30T13:07:43;4.45;;;3.83;;
9940;SDS011;5009;50.656;7.188;2023-08-30T13:10:09;4.75;;;4.30;;
9940;SDS011;5009;50.656;7.188;2023-08-30T13:12:35;4.28;;;3.88;;
9940;SDS011;5009;50.656;7.188;2023-08-30T13:15:02;4.53;;;4.03;;
9940;SDS011;5009;50.656;7.188;2023-08-30T13:17:29;4.18;;;3.83;;
9940;SDS011;5009;50.656;7.188;2023-08-30T13:19:54;5.15;;;4.40;;
9940;SDS011;5009;50.656;7.188;2023-08-30T13:22:21;4.13;;;3.83;;
9940;SDS011;5009;50.656;7.188;2023-08-30T13:24:47;4.97;;;4.15;;
9940;SDS011;5009;50.656;7.188;2023-08-30T13:27:13;4.30;;;3.80;;
9940;SDS011;5009;50.656;7.188;2023-08-30T13:29:38;4.28;;;3.88;;
9940;SDS011;5009;50.656;7.188;2023-08-30T13:32:04;5.30;;;4.80;;
9940;SDS011;5009;50.656;7.188;2023-08-30T13:34:30;6.03;;;5.47;;
9940;SDS011;5009;50.656;7.188;2023-08-30T13:36:56;6.13;;;5.20;;
9940;SDS011;5009;50.656;7.188;2023-08-30T13:39:21;4.95;;;4.45;;
9940;SDS011;5009;50.656;7.188;2023-08-30T13:41:47;6.18;;;5.03;;
9940;SDS011;5009;50.656;7.188;2023-08-30T13:44:13;5.90;;;4.97;;
9940;SDS011;5009;50.656;7.188;2023-08-30T13:46:39;6.35;;;4.75;;
9940;SDS011;5009;50.656;7.188;2023-08-30T13:49:04;5.05;;;3.75;;
9940;SDS011;5009;50.656;7.188;2023-08-30T13:51:30;4.13;;;3.70;;
9940;SDS011;5009;50.656;7.188;2023-08-30T13:53:56;3.85;;;3.55;;
9940;SDS011;5009;50.656;7.188;2023-08-30T13:56:22;3.85;;;3.40;;
9940;SDS011;5009;50.656;7.188;2023-08-30T13:58:48;4.00;;;3.67;;
9940;SDS011;5009;50.656;7.188;2023-08-30T14:01:14;3.60;;;3.30;;
9940;SDS011;5009;50.656;7.188;2023-08-30T14:03:39;5.13;;;3.38;;
9940;SDS011;5009;50.656;7.188;2023-08-30T14:06:05;3.67;;;3.38;;
9940;SDS011;5009;50.656;7.188;2023-08-30T14:08:31;3.90;;;3.45;;
9940;SDS011;5009;50.656;7.188;2023-08-30T14:10:56;3.30;;;3.10;;
9940;SDS011;5009;50.656;7.188;2023-08-30T14:13:22;7.15;;;3.33;;
9940;SDS011;5009;50.656;7.188;2023-08-30T14:15:48;5.00;;;3.30;;
9940;SDS011;5009;50.656;7.188;2023-08-30T14:18:13;3.90;;;3.53;;
9940;SDS011;5009;50.656;7.188;2023-08-30T14:20:40;3.38;;;3.17;;
9940;SDS011;5009;50.656;7.188;2023-08-30T14:23:06;3.38;;;3.08;;
9940;SDS011;5009;50.656;7.188;2023-08-30T14:25:32;3.20;;;2.97;;
9940;SDS011;5009;50.656;7.188;2023-08-30T14:27:58;5.30;;;3.40;;
9940;SDS011;5009;50.656;7.188;2023-08-30T14:30:24;3.60;;;3.28;;
9940;SDS011;5009;50.656;7.188;2023-08-30T14:32:50;3.60;;;3.40;;
9940;SDS011;5009;50.656;7.188;2023-08-30T14:35:16;4.95;;;3.33;;
9940;SDS011;5009;50.656;7.188;2023-08-30T14:37:42;4.25;;;3.50;;
9940;SDS011;5009;50.656;7.188;2023-08-30T14:40:08;4.07;;;3.30;;
9940;SDS011;5009;50.656;7.188;2023-08-30T14:42:33;3.00;;;2.80;;
9940;SDS011;5009;50.656;7.188;2023-08-30T14:44:59;2.97;;;2.78;;
9940;SDS011;5009;50.656;7.188;2023-08-30T14:47:24;4.43;;;3.00;;
9940;SDS011;5009;50.656;7.188;2023-08-30T14:49:50;3.03;;;2.83;;
9940;SDS011;5009;50.656;7.188;2023-08-30T14:52:16;4.63;;;2.80;;
9940;SDS011;5009;50.656;7.188;2023-08-30T14:54:42;3.55;;;2.72;;
9940;SDS011;5009;50.656;7.188;2023-08-30T14:57:08;4.53;;;2.25;;
9940;SDS011;5009;50.656;7.188;2023-08-30T14:59:34;3.53;;;2.35;;
9940;SDS011;5009;50.656;7.188;2023-08-30T15:02:00;2.47;;;2.28;;
9940;SDS011;5009;50.656;7.188;2023-08-30T15:04:25;2.22;;;2.03;;
9940;SDS011;5009;50.656;7.188;2023-08-30T15:06:51;2.38;;;2.10;;
9940;SDS011;5009;50.656;7.188;2023-08-30T15:09:17;3.40;;;2.42;;
9940;SDS011;5009;50.656;7.188;2023-08-30T15:11:43;3.58;;;2.30;;
9940;SDS011;5009;50.656;7.188;2023-08-30T15:14:09;2.17;;;2.05;;
9940;SDS011;5009;50.656;7.188;2023-08-30T15:16:35;2.33;;;2.13;;
9940;SDS011;5009;50.656;7.188;2023-08-30T15:19:00;2.55;;;2.35;;
9940;SDS011;5009;50.656;7.188;2023-08-30T15:21:26;2.30;;;2.20;;
9940;SDS011;5009;50.656;7.188;2023-08-30T15:23:52;3.85;;;2.15;;
9940;SDS011;5009;50.656;7.188;2023-08-30T15:26:17;2.38;;;2.28;;
9940;SDS011;5009;50.656;7.188;2023-08-30T15:28:45;3.40;;;2.13;;
9940;SDS011;5009;50.656;7.188;2023-08-30T15:31:15;2.83;;;2.30;;
9940;SDS011;5009;50.656;7.188;2023-08-30T15:33:45;3.92;;;2.30;;
9940;SDS011;5009;50.656;7.188;2023-08-30T15:36:11;2.40;;;2.17;;
9940;SDS011;5009;50.656;7.188;2023-08-30T15:38:36;3.63;;;2.47;;
9940;SDS011;5009;50.656;7.188;2023-08-30T15:41:06;3.67;;;2.90;;
9940;SDS011;5009;50.656;7.188;2023-08-30T15:43:34;3.03;;;2.70;;
9940;SDS011;5009;50.656;7.188;2023-08-30T15:46:13;4.43;;;2.83;;
9940;SDS011;5009;50.656;7.188;2023-08-30T15:48:39;4.35;;;2.95;;
9940;SDS011;5009;50.656;7.188;2023-08-30T15:51:05;4.88;;;3.28;;
9940;SDS011;5009;50.656;7.188;2023-08-30T15:53:31;3.53;;;2.72;;
9940;SDS011;5009;50.656;7.188;2023-08-30T15:55:57;3.03;;;2.83;;
9940;SDS011;5009;50.656;7.188;2023-08-30T15:58:23;2.80;;;2.55;;
9940;SDS011;5009;50.656;7.188;2023-08-30T16:00:48;3.20;;;2.90;;
9940;SDS011;5009;50.656;7.188;2023-08-30T16:03:15;6.07;;;3.17;;
9940;SDS011;5009;50.656;7.188;2023-08-30T16:05:41;3.58;;;2.95;;
9940;SDS011;5009;50.656;7.188;2023-08-30T16:08:08;3.70;;;3.40;;
9940;SDS011;5009;50.656;7.188;2023-08-30T16:10:33;3.72;;;3.20;;
9940;SDS011;5009;50.656;7.188;2023-08-30T16:12:59;5.63;;;3.28;;
9940;SDS011;5009;50.656;7.188;2023-08-30T16:15:25;3.55;;;3.25;;
9940;SDS011;5009;50.656;7.188;2023-08-30T16:17:52;4.40;;;3.60;;
9940;SDS011;5009;50.656;7.188;2023-08-30T16:20:18;3.83;;;3.53;;
9940;SDS011;5009;50.656;7.188;2023-08-30T16:22:44;3.75;;;3.45;;
9940;SDS011;5009;50.656;7.188;2023-08-30T16:25:09;5.15;;;4.22;;
9940;SDS011;5009;50.656;7.188;2023-08-30T16:27:35;5.95;;;3.80;;
9940;SDS011;5009;50.656;7.188;2023-08-30T16:30:01;5.72;;;3.80;;
9940;SDS011;5009;50.656;7.188;2023-08-30T16:32:28;4.78;;;3.70;;
9940;SDS011;5009;50.656;7.188;2023-08-30T16:34:54;3.40;;;3.20;;
9940;SDS011;5009;50.656;7.188;2023-08-30T16:37:20;4.22;;;3.80;;
9940;SDS011;5009;50.656;7.188;2023-08-30T16:39:45;3.78;;;3.47;;
9940;SDS011;5009;50.656;7.188;2023-08-30T16:42:11;5.80;;;3.33;;
9940;SDS011;5009;50.656;7.188;2023-08-30T16:44:36;4.28;;;3.58;;
9940;SDS011;5009;50.656;7.188;2023-08-30T16:47:02;4.55;;;3.90;;
9940;SDS011;5009;50.656;7.188;2023-08-30T16:49:28;3.58;;;3.38;;
9940;SDS011;5009;50.656;7.188;2023-08-30T16:51:53;6.20;;;3.88;;
9940;SDS011;5009;50.656;7.188;2023-08-30T16:54:19;3.92;;;3.53;;
9940;SDS011;5009;50.656;7.188;2023-08-30T16:56:46;6.10;;;3.70;;
9940;SDS011;5009;50.656;7.188;2023-08-30T16:59:11;4.00;;;3.60;;
9940;SDS011;5009;50.656;7.188;2023-08-30T17:01:37;5.57;;;3.72;;
9940;SDS011;5009;50.656;7.188;2023-08-30T17:04:03;3.97;;;3.33;;
9940;SDS011;5009;50.656;7.188;2023-08-30T17:06:29;4.38;;;3.97;;
9940;SDS011;5009;50.656;7.188;2023-08-30T17:08:54;4.13;;;3.72;;
9940;SDS011;5009;50.656;7.188;2023-08-30T17:11:20;3.83;;;3.53;;
9940;SDS011;5009;50.656;7.188;2023-08-30T17:13:46;4.57;;;3.70;;
9940;SDS011;5009;50.656;7.188;2023-08-30T17:16:11;3.78;;;3.35;;
9940;SDS011;5009;50.656;7.188;2023-08-30T17:18:37;4.65;;;4.15;;
9940;SDS011;5009;50.656;7.188;2023-08-30T17:21:04;4.55;;;4.15;;
9940;SDS011;5009;50.656;7.188;2023-08-30T17:23:34;4.30;;;4.00;;
9940;SDS011;5009;50.656;7.188;2023-08-30T17:26:00;6.43;;;4.22;;
9940;SDS011;5009;50.656;7.188;2023-08-30T17:28:26;4.88;;;3.83;;
9940;SDS011;5009;50.656;7.188;2023-08-30T17:30:51;5.30;;;4.25;;
9940;SDS011;5009;50.656;7.188;2023-08-30T17:33:17;5.55;;;4.18;;
9940;SDS011;5009;50.656;7.188;2023-08-30T17:35:43;4.55;;;3.83;;
9940;SDS011;5009;50.656;7.188;2023-08-30T17:38:08;5.57;;;4.07;;
9940;SDS011;5009;50.656;7.188;2023-08-30T17:40:34;4.13;;;3.83;;
9940;SDS011;5009;50.656;7.188;2023-08-30T17:43:00;6.18;;;4.78;;
9940;SDS011;5009;50.656;7.188;2023-08-30T17:45:32;4.13;;;3.80;;
9940;SDS011;5009;50.656;7.188;2023-08-30T17:47:58;4.63;;;4.22;;
9940;SDS011;5009;50.656;7.188;2023-08-30T17:50:24;4.38;;;4.07;;
9940;SDS011;5009;50.656;7.188;2023-08-30T17:52:51;4.57;;;4.18;;
9940;SDS011;5009;50.656;7.188;2023-08-30T17:55:17;4.85;;;4.35;;
9940;SDS011;5009;50.656;7.188;2023-08-30T17:57:42;5.28;;;4.35;;
9940;SDS011;5009;50.656;7.188;2023-08-30T18:00:08;5.35;;;4.88;;
9940;SDS011;5009;50.656;7.188;2023-08-30T18:02:35;6.82;;;4.53;;
9940;SDS011;5009;50.656;7.188;2023-08-30T18:05:01;4.68;;;4.13;;
9940;SDS011;5009;50.656;7.188;2023-08-30T18:07:31;5.28;;;4.18;;
9940;SDS011;5009;50.656;7.188;2023-08-30T18:09:57;4.78;;;4.38;;
9940;SDS011;5009;50.656;7.188;2023-08-30T18:12:24;9.35;;;4.60;;
9940;SDS011;5009;50.656;7.188;2023-08-30T18:14:49;5.22;;;4.70;;
9940;SDS011;5009;50.656;7.188;2023-08-30T18:17:15;4.75;;;4.35;;
9940;SDS011;5009;50.656;7.188;2023-08-30T18:19:42;4.85;;;4.25;;
9940;SDS011;5009;50.656;7.188;2023-08-30T18:22:09;6.22;;;4.55;;
9940;SDS011;5009;50.656;7.188;2023-08-30T18:24:35;5.03;;;4.63;;
9940;SDS011;5009;50.656;7.188;2023-08-30T18:27:01;7.43;;;4.95;;
9940;SDS011;5009;50.656;7.188;2023-08-30T18:29:27;5.25;;;4.65;;
9940;SDS011;5009;50.656;7.188;2023-08-30T18:31:53;5.43;;;4.88;;
9940;SDS011;5009;50.656;7.188;2023-08-30T18:34:19;6.47;;;4.97;;
9940;SDS011;5009;50.656;7.188;2023-08-30T18:36:44;5.82;;;5.22;;
9940;SDS011;5009;50.656;7.188;2023-08-30T18:39:10;5.97;;;4.55;;
9940;SDS011;5009;50.656;7.188;2023-08-30T18:41:38;5.47;;;4.80;;
9940;SDS011;5009;50.656;7.188;2023-08-30T18:44:04;5.07;;;4.68;;
9940;SDS011;5009;50.656;7.188;2023-08-30T18:46:29;6.00;;;4.55;;
9940;SDS011;5009;50.656;7.188;2023-08-30T18:48:55;5.50;;;4.30;;
9940;SDS011;5009;50.656;7.188;2023-08-30T18:51:21;4.53;;;3.95;;
9940;SDS011;5009;50.656;7.188;2023-08-30T18:53:47;4.07;;;3.72;;
9940;SDS011;5009;50.656;7.188;2023-08-30T18:56:16;3.78;;;3.40;;
9940;SDS011;5009;50.656;7.188;2023-08-30T18:58:42;6.05;;;3.85;;
9940;SDS011;5009;50.656;7.188;2023-08-30T19:01:09;3.90;;;3.47;;
9940;SDS011;5009;50.656;7.188;2023-08-30T19:03:38;4.45;;;3.85;;
9940;SDS011;5009;50.656;7.188;2023-08-30T19:06:04;4.43;;;3.78;;
9940;SDS011;5009;50.656;7.188;2023-08-30T19:08:32;4.18;;;3.40;;
9940;SDS011;5009;50.656;7.188;2023-08-30T19:10:58;4.38;;;3.60;;
9940;SDS011;5009;50.656;7.188;2023-08-30T19:13:23;7.20;;;4.05;;
9940;SDS011;5009;50.656;7.188;2023-08-30T19:15:49;5.00;;;3.53;;